createdAt,value
2023-03-25T00:00:18.327Z,0.90
2023-03-25T00:02:49.657Z,0.98
2023-03-25T00:05:20.393Z,0.90
2023-03-25T00:07:51.108Z,1.20
2023-03-25T00:10:18.883Z,0.80
2023-03-25T00:12:46.062Z,0.90
2023-03-25T00:15:13.942Z,1.08
2023-03-25T00:17:41.103Z,1.30
2023-03-25T00:20:10.242Z,1.17
2023-03-25T00:22:41.499Z,1.00
2023-03-25T00:25:19.359Z,1.40
2023-03-25T00:27:49.066Z,1.25
2023-03-25T00:30:18.208Z,1.30
2023-03-25T00:32:49.936Z,1.35
2023-03-25T00:35:19.770Z,1.83
2023-03-25T00:37:48.271Z,1.55
2023-03-25T00:40:15.362Z,1.38
2023-03-25T00:42:45.081Z,1.60
2023-03-25T00:45:15.164Z,1.60
2023-03-25T00:47:43.108Z,1.20
2023-03-25T00:50:10.825Z,1.40
2023-03-25T00:52:38.028Z,1.20
2023-03-25T00:55:05.836Z,1.35
2023-03-25T00:57:32.888Z,1.73
2023-03-25T01:00:00.360Z,1.40
2023-03-25T01:02:27.592Z,1.20
2023-03-25T01:04:55.148Z,1.38
2023-03-25T01:07:22.175Z,1.23
2023-03-25T01:09:49.298Z,1.80
2023-03-25T01:12:19.023Z,1.80
2023-03-25T01:14:46.237Z,1.23
2023-03-25T01:17:13.235Z,1.42
2023-03-25T01:19:40.511Z,1.70
2023-03-25T01:22:07.894Z,1.50
2023-03-25T01:24:35.010Z,1.88
2023-03-25T01:27:02.153Z,1.50
2023-03-25T01:29:29.355Z,1.50
2023-03-25T01:31:57.190Z,1.45
2023-03-25T01:34:24.633Z,1.67
2023-03-25T01:36:56.009Z,1.33
2023-03-25T01:39:23.118Z,1.40
2023-03-25T01:41:51.559Z,1.50
2023-03-25T01:44:24.449Z,1.42
2023-03-25T01:46:56.512Z,1.30
2023-03-25T01:49:31.545Z,1.60
2023-03-25T01:52:04.988Z,1.20
2023-03-25T01:54:32.970Z,1.30
2023-03-25T01:57:00.526Z,1.23
2023-03-25T01:59:29.538Z,1.45
2023-03-25T02:02:02.504Z,1.85
2023-03-25T02:04:40.569Z,1.13
2023-03-25T02:07:10.987Z,1.73
2023-03-25T02:09:39.151Z,1.38
2023-03-25T02:12:06.190Z,1.23
2023-03-25T02:14:36.362Z,1.85
2023-03-25T02:17:33.977Z,1.50
2023-03-25T02:20:24.302Z,1.52
2023-03-25T02:23:04.697Z,1.45
2023-03-25T02:25:55.008Z,1.48
2023-03-25T02:28:37.172Z,1.73
2023-03-25T02:31:10.008Z,1.63
2023-03-25T02:34:09.748Z,1.58
2023-03-25T02:37:03.420Z,1.70
2023-03-25T02:39:48.610Z,1.92
2023-03-25T02:42:34.846Z,1.80
2023-03-25T02:45:09.577Z,2.20
2023-03-25T02:47:44.627Z,1.92
2023-03-25T02:50:46.363Z,2.33
2023-03-25T02:53:21.018Z,2.03
2023-03-25T02:55:51.427Z,2.25
2023-03-25T02:58:21.725Z,1.67
2023-03-25T03:00:50.639Z,2.53
2023-03-25T03:03:18.311Z,2.40
2023-03-25T03:05:50.019Z,2.08
2023-03-25T03:08:27.278Z,1.52
2023-03-25T03:11:17.660Z,1.77
2023-03-25T03:14:06.665Z,2.00
2023-03-25T03:16:39.577Z,3.08
2023-03-25T03:19:21.360Z,1.30
2023-03-25T03:21:57.244Z,2.10
2023-03-25T03:24:41.289Z,2.17
2023-03-25T03:27:12.270Z,1.30
2023-03-25T03:29:49.628Z,1.25
2023-03-25T03:32:49.999Z,1.48
2023-03-25T03:35:27.833Z,1.65
2023-03-25T03:38:09.657Z,1.90
2023-03-25T03:40:39.198Z,1.35
2023-03-25T03:43:33.671Z,1.60
2023-03-25T03:46:06.317Z,1.23
2023-03-25T03:48:45.386Z,1.20
2023-03-25T03:51:18.775Z,1.50
2023-03-25T03:53:58.516Z,1.50
2023-03-25T03:56:38.958Z,1.48
2023-03-25T03:59:14.724Z,1.50
2023-03-25T04:01:48.492Z,1.52
2023-03-25T04:04:27.130Z,1.65
2023-03-25T04:07:19.988Z,1.50
2023-03-25T04:10:02.839Z,1.45
2023-03-25T04:12:47.962Z,2.13
2023-03-25T04:15:16.185Z,1.63
2023-03-25T04:17:43.213Z,1.45
2023-03-25T04:20:15.001Z,2.05
2023-03-25T04:22:45.844Z,1.50
2023-03-25T04:25:14.252Z,1.58
2023-03-25T04:27:41.335Z,2.55
2023-03-25T04:30:09.376Z,1.83
2023-03-25T04:32:36.473Z,1.50
2023-03-25T04:35:04.115Z,1.63
2023-03-25T04:37:34.047Z,2.47
2023-03-25T04:40:01.197Z,1.85
2023-03-25T04:42:33.317Z,1.92
2023-03-25T04:45:00.972Z,2.22
2023-03-25T04:47:28.396Z,3.17
2023-03-25T04:49:55.774Z,2.45
2023-03-25T04:52:22.728Z,2.30
2023-03-25T04:54:49.933Z,2.30
2023-03-25T04:57:16.904Z,2.33
2023-03-25T04:59:44.104Z,2.30
2023-03-25T05:02:13.699Z,2.08
2023-03-25T05:04:47.475Z,2.47
2023-03-25T05:07:16.520Z,3.65
2023-03-25T05:09:44.150Z,2.40
2023-03-25T05:12:11.761Z,2.55
2023-03-25T05:14:38.750Z,2.10
2023-03-25T05:17:05.810Z,2.75
2023-03-25T05:19:35.499Z,2.25
2023-03-25T05:22:03.524Z,2.25
2023-03-25T05:24:30.970Z,2.22
2023-03-25T05:26:58.019Z,2.97
2023-03-25T05:29:25.139Z,3.67
2023-03-25T05:31:52.299Z,3.50
2023-03-25T05:34:20.777Z,3.17
2023-03-25T05:36:47.826Z,4.10
2023-03-25T05:39:15.667Z,3.10
2023-03-25T05:41:45.749Z,2.67
2023-03-25T05:44:19.053Z,3.00
2023-03-25T05:46:46.000Z,3.45
2023-03-25T05:49:12.912Z,2.70
2023-03-25T05:51:40.062Z,2.70
2023-03-25T05:54:11.824Z,2.50
2023-03-25T05:56:39.743Z,2.80
2023-03-25T05:59:08.407Z,2.35
2023-03-25T06:01:38.065Z,2.08
2023-03-25T06:04:05.605Z,2.28
2023-03-25T06:06:34.478Z,2.53
2023-03-25T06:09:03.029Z,2.97
2023-03-25T06:11:30.634Z,2.28
2023-03-25T06:13:57.613Z,2.30
2023-03-25T06:16:30.042Z,2.10
2023-03-25T06:19:01.705Z,2.90
2023-03-25T06:21:33.541Z,3.53
2023-03-25T06:24:02.209Z,2.40
2023-03-25T06:26:30.040Z,2.72
2023-03-25T06:28:58.202Z,2.50
2023-03-25T06:31:33.932Z,2.72
2023-03-25T06:34:01.584Z,4.35
2023-03-25T06:36:28.792Z,3.50
2023-03-25T06:38:55.783Z,2.90
2023-03-25T06:41:26.102Z,2.80
2023-03-25T06:43:53.536Z,3.70
2023-03-25T06:46:20.917Z,3.20
2023-03-25T06:48:48.079Z,2.88
2023-03-25T06:51:15.011Z,3.08
2023-03-25T06:53:42.218Z,2.70
2023-03-25T06:56:09.471Z,3.80
2023-03-25T06:58:36.600Z,2.45
2023-03-25T07:01:07.503Z,2.30
2023-03-25T07:03:39.120Z,2.20
2023-03-25T07:06:06.564Z,2.13
2023-03-25T07:08:34.000Z,2.50
2023-03-25T07:11:02.455Z,2.10
2023-03-25T07:13:31.162Z,3.20
2023-03-25T07:15:59.203Z,2.88
2023-03-25T07:18:26.621Z,3.88
2023-03-25T07:20:53.980Z,2.35
2023-03-25T07:23:21.137Z,3.38
2023-03-25T07:25:48.507Z,3.20
2023-03-25T07:28:16.214Z,2.38
2023-03-25T07:30:43.282Z,3.25
2023-03-25T07:33:10.280Z,2.65
2023-03-25T07:35:37.503Z,4.13
2023-03-25T07:38:04.535Z,3.58
2023-03-25T07:40:31.828Z,2.63
2023-03-25T07:42:58.951Z,2.15
2023-03-25T07:45:26.114Z,2.28
2023-03-25T07:47:53.888Z,2.53
2023-03-25T07:50:24.541Z,2.65
2023-03-25T07:52:53.584Z,2.17
2023-03-25T07:55:21.306Z,2.10
2023-03-25T07:57:48.310Z,2.15
2023-03-25T08:00:15.468Z,2.28
2023-03-25T08:02:42.576Z,2.05
2023-03-25T08:05:10.253Z,3.08
2023-03-25T08:07:37.286Z,2.50
2023-03-25T08:10:04.510Z,2.75
2023-03-25T08:12:31.470Z,2.08
2023-03-25T08:15:00.145Z,2.80
2023-03-25T08:17:27.269Z,2.90
2023-03-25T08:19:54.258Z,3.20
2023-03-25T08:22:21.237Z,2.72
2023-03-25T08:24:48.330Z,2.88
2023-03-25T08:27:16.394Z,2.85
2023-03-25T08:29:44.960Z,2.90
2023-03-25T08:32:12.064Z,2.95
2023-03-25T08:34:40.228Z,4.55
2023-03-25T08:37:11.273Z,4.15
2023-03-25T08:39:40.310Z,3.10
2023-03-25T08:42:08.717Z,2.53
2023-03-25T08:44:35.847Z,2.75
2023-03-25T08:47:03.022Z,2.80
2023-03-25T08:49:30.155Z,5.15
2023-03-25T08:51:59.430Z,2.55
2023-03-25T08:54:27.345Z,3.03
2023-03-25T08:56:54.715Z,2.65
2023-03-25T08:59:21.882Z,2.58
2023-03-25T09:01:48.944Z,3.58
2023-03-25T09:04:16.414Z,2.53
2023-03-25T09:06:48.031Z,2.80
2023-03-25T09:09:30.842Z,3.22
2023-03-25T09:11:57.997Z,2.80
2023-03-25T09:14:25.650Z,2.80
2023-03-25T09:16:52.768Z,2.90
2023-03-25T09:19:19.741Z,2.80
2023-03-25T09:21:46.803Z,2.53
2023-03-25T09:24:14.026Z,2.72
2023-03-25T09:26:41.125Z,2.53
2023-03-25T09:29:08.257Z,2.28
2023-03-25T09:31:35.944Z,2.47
2023-03-25T09:34:03.341Z,3.00
2023-03-25T09:36:32.322Z,3.10
2023-03-25T09:38:59.304Z,3.58
2023-03-25T09:41:54.342Z,2.63
2023-03-25T09:44:52.577Z,2.55
2023-03-25T09:47:21.622Z,2.60
2023-03-25T09:49:53.842Z,2.00
2023-03-25T09:52:51.148Z,2.38
2023-03-25T09:55:25.341Z,2.88
2023-03-25T09:58:14.901Z,2.40
2023-03-25T10:00:42.544Z,2.13
2023-03-25T10:03:28.675Z,2.20
2023-03-25T10:06:21.606Z,2.05
2023-03-25T10:09:10.389Z,2.45
2023-03-25T10:11:48.385Z,2.40
2023-03-25T10:14:30.964Z,3.05
2023-03-25T10:17:37.713Z,1.83
2023-03-25T10:20:20.764Z,2.22
2023-03-25T10:23:15.641Z,1.80
2023-03-25T10:25:48.283Z,2.20
2023-03-25T10:28:20.771Z,1.55
2023-03-25T10:30:52.440Z,1.67
2023-03-25T10:33:44.278Z,1.60
2023-03-25T10:36:19.251Z,1.67
2023-03-25T10:38:51.484Z,2.17
2023-03-25T10:41:28.615Z,1.27
2023-03-25T10:43:55.647Z,1.38
2023-03-25T10:46:28.846Z,1.35
2023-03-25T10:48:55.886Z,1.92
2023-03-25T10:51:30.758Z,1.65
2023-03-25T10:53:59.671Z,2.00
2023-03-25T10:56:32.862Z,2.15
2023-03-25T10:59:05.374Z,1.60
2023-03-25T11:01:39.045Z,1.15
2023-03-25T11:04:09.440Z,1.63
2023-03-25T11:06:41.884Z,1.60
2023-03-25T11:09:15.612Z,2.08
2023-03-25T11:11:43.763Z,1.80
2023-03-25T11:14:12.002Z,1.75
2023-03-25T11:16:54.282Z,2.13
2023-03-25T11:19:46.819Z,1.67
2023-03-25T11:22:19.309Z,2.03
2023-03-25T11:24:50.794Z,1.50
2023-03-25T11:27:23.027Z,1.77
2023-03-25T11:30:03.168Z,1.95
2023-03-25T11:32:38.929Z,2.03
2023-03-25T11:35:27.332Z,1.42
2023-03-25T11:38:00.176Z,1.65
2023-03-25T11:40:29.988Z,1.45
2023-03-25T11:43:00.134Z,1.63
2023-03-25T11:45:35.499Z,1.90
2023-03-25T11:48:11.727Z,2.08
2023-03-25T11:50:38.915Z,1.70
2023-03-25T11:53:06.888Z,1.67
2023-03-25T11:55:46.929Z,1.50
2023-03-25T11:58:19.805Z,1.30
2023-03-25T12:00:51.855Z,2.53
2023-03-25T12:03:26.789Z,1.63
2023-03-25T12:06:06.447Z,1.33
2023-03-25T12:08:48.824Z,1.30
2023-03-25T12:11:27.404Z,1.60
2023-03-25T12:14:26.152Z,1.92
2023-03-25T12:16:59.342Z,1.40
2023-03-25T12:19:26.446Z,1.33
2023-03-25T12:21:59.424Z,1.63
2023-03-25T12:25:15.480Z,1.30
2023-03-25T12:27:53.769Z,1.80
2023-03-25T12:30:36.378Z,1.55
2023-03-25T12:33:30.661Z,1.58
2023-03-25T12:36:15.189Z,2.00
2023-03-25T12:39:14.916Z,2.05
2023-03-25T12:42:03.319Z,1.67
2023-03-25T12:44:48.095Z,2.00
2023-03-25T12:47:17.780Z,1.42
2023-03-25T12:49:52.262Z,1.15
2023-03-25T12:52:33.431Z,1.50
2023-03-25T12:55:18.855Z,1.10
2023-03-25T12:58:30.509Z,1.30
2023-03-25T13:01:19.644Z,1.00
2023-03-25T13:03:59.636Z,1.20
2023-03-25T13:06:42.153Z,1.40
2023-03-25T13:09:36.692Z,1.40
2023-03-25T13:12:27.334Z,1.13
2023-03-25T13:15:27.265Z,1.23
2023-03-25T13:18:08.988Z,1.65
2023-03-25T13:20:43.984Z,1.70
2023-03-25T13:23:17.821Z,1.73
2023-03-25T13:26:23.294Z,1.38
2023-03-25T13:28:50.201Z,1.40
2023-03-25T13:31:27.781Z,1.30
2023-03-25T13:34:18.006Z,1.60
2023-03-25T13:36:58.031Z,1.13
2023-03-25T13:39:41.773Z,1.25
2023-03-25T13:42:21.257Z,1.80
2023-03-25T13:44:51.697Z,1.90
2023-03-25T13:47:25.622Z,1.80
2023-03-25T13:50:13.600Z,1.25
2023-03-25T13:52:45.639Z,1.48
2023-03-25T13:55:23.018Z,1.58
2023-03-25T13:58:20.719Z,1.67
2023-03-25T14:01:28.985Z,2.35
2023-03-25T14:04:20.057Z,2.35
2023-03-25T14:07:16.219Z,1.45
2023-03-25T14:09:49.664Z,1.88
2023-03-25T14:12:24.402Z,1.65
2023-03-25T14:14:58.355Z,1.38
2023-03-25T14:17:26.869Z,1.20
2023-03-25T14:19:58.601Z,1.52
2023-03-25T14:22:37.006Z,1.67
2023-03-25T14:25:04.197Z,1.27
2023-03-25T14:27:37.604Z,1.50
2023-03-25T14:30:34.762Z,1.33
2023-03-25T14:33:03.379Z,1.50
2023-03-25T14:35:33.970Z,2.28
2023-03-25T14:38:10.050Z,1.50
2023-03-25T14:40:47.946Z,2.05
2023-03-25T14:43:34.257Z,2.10
2023-03-25T14:46:10.860Z,2.08
2023-03-25T14:48:47.900Z,1.40
2023-03-25T14:51:23.598Z,1.45
2023-03-25T14:54:04.006Z,1.83
2023-03-25T14:56:41.895Z,1.65
2023-03-25T14:59:14.191Z,1.65
2023-03-25T15:01:43.568Z,1.95
2023-03-25T15:04:30.856Z,2.00
2023-03-25T15:06:59.649Z,1.80
2023-03-25T15:09:30.079Z,1.85
2023-03-25T15:12:05.809Z,1.95
2023-03-25T15:14:39.217Z,1.58
2023-03-25T15:17:39.852Z,1.63
2023-03-25T15:20:10.732Z,1.90
2023-03-25T15:22:38.254Z,1.80
2023-03-25T15:25:20.369Z,2.00
2023-03-25T15:28:01.893Z,1.65
2023-03-25T15:30:39.650Z,1.45
2023-03-25T15:33:39.527Z,1.55
2023-03-25T15:36:33.358Z,1.75
2023-03-25T15:39:25.109Z,2.08
2023-03-25T15:42:32.942Z,1.77
2023-03-25T15:45:23.402Z,2.85
2023-03-25T15:48:12.086Z,1.77
2023-03-25T15:51:08.467Z,1.83
2023-03-25T15:54:00.760Z,1.65
2023-03-25T15:56:37.257Z,2.30
2023-03-25T15:59:16.260Z,2.33
2023-03-25T16:01:46.438Z,2.35
2023-03-25T16:04:44.241Z,2.28
2023-03-25T16:07:15.726Z,1.85
2023-03-25T16:09:48.468Z,1.65
2023-03-25T16:12:26.177Z,1.90
2023-03-25T16:14:53.505Z,1.55
2023-03-25T16:17:22.966Z,1.80
2023-03-25T16:19:54.749Z,1.35
2023-03-25T16:22:33.577Z,1.77
2023-03-25T16:25:08.677Z,1.77
2023-03-25T16:27:41.807Z,1.70
2023-03-25T16:30:19.738Z,2.13
2023-03-25T16:32:46.869Z,2.45
2023-03-25T16:35:28.226Z,2.47
2023-03-25T16:37:59.780Z,1.90
2023-03-25T16:40:36.300Z,3.30
2023-03-25T16:43:06.666Z,2.13
2023-03-25T16:45:35.874Z,1.85
2023-03-25T16:48:07.648Z,2.47
2023-03-25T16:50:35.892Z,3.80
2023-03-25T16:53:03.334Z,1.85
2023-03-25T16:55:41.945Z,2.28
2023-03-25T16:58:25.963Z,1.80
2023-03-25T17:00:55.957Z,2.15
2023-03-25T17:03:43.732Z,2.15
2023-03-25T17:06:19.806Z,1.85
2023-03-25T17:08:51.221Z,2.10
2023-03-25T17:11:18.290Z,2.10
2023-03-25T17:13:52.539Z,2.42
2023-03-25T17:16:21.571Z,2.13
2023-03-25T17:18:51.608Z,1.80
2023-03-25T17:21:31.221Z,2.40
2023-03-25T17:24:24.486Z,2.00
2023-03-25T17:26:57.764Z,3.05
2023-03-25T17:29:24.807Z,2.30
2023-03-25T17:31:57.724Z,2.90
2023-03-25T17:34:30.739Z,2.65
2023-03-25T17:37:00.710Z,3.70
2023-03-25T17:39:30.986Z,1.95
2023-03-25T17:42:01.770Z,2.40
2023-03-25T17:44:49.398Z,2.28
2023-03-25T17:47:18.520Z,1.90
2023-03-25T17:49:45.964Z,2.33
2023-03-25T17:52:13.433Z,2.28
2023-03-25T17:54:40.744Z,2.38
2023-03-25T17:57:14.316Z,2.55
2023-03-25T17:59:41.331Z,2.25
2023-03-25T18:02:16.202Z,2.17
2023-03-25T18:04:44.191Z,2.20
2023-03-25T18:07:11.279Z,1.75
2023-03-25T18:09:39.678Z,2.42
2023-03-25T18:12:06.837Z,1.77
2023-03-25T18:14:35.206Z,1.85
2023-03-25T18:17:04.157Z,2.13
2023-03-25T18:19:32.200Z,1.65
2023-03-25T18:22:13.911Z,2.15
2023-03-25T18:24:47.202Z,2.00
2023-03-25T18:27:14.448Z,1.90
2023-03-25T18:29:42.195Z,1.67
2023-03-25T18:32:09.489Z,1.60
2023-03-25T18:34:36.586Z,1.35
2023-03-25T18:37:03.609Z,1.77
2023-03-25T18:39:32.516Z,2.10
2023-03-25T18:41:59.591Z,2.00
2023-03-25T18:44:28.729Z,2.95
2023-03-25T18:46:55.738Z,1.38
2023-03-25T18:49:23.092Z,1.80
2023-03-25T18:51:50.065Z,1.98
2023-03-25T18:54:18.536Z,2.08
2023-03-25T18:56:46.057Z,2.22
2023-03-25T18:59:21.708Z,2.35
2023-03-25T19:01:48.937Z,3.22
2023-03-25T19:04:16.980Z,2.20
2023-03-25T19:06:44.348Z,1.90
2023-03-25T19:09:22.870Z,2.55
2023-03-25T19:11:50.071Z,2.60
2023-03-25T19:14:17.021Z,2.67
2023-03-25T19:16:57.082Z,2.28
2023-03-25T19:19:28.638Z,2.70
2023-03-25T19:21:58.455Z,2.67
2023-03-25T19:24:25.536Z,2.28
2023-03-25T19:26:52.706Z,2.75
2023-03-25T19:29:19.846Z,2.58
2023-03-25T19:31:47.013Z,2.92
2023-03-25T19:34:14.329Z,2.70
2023-03-25T19:36:41.504Z,2.08
2023-03-25T19:39:10.793Z,2.10
2023-03-25T19:41:42.792Z,2.65
2023-03-25T19:44:10.032Z,1.85
2023-03-25T19:46:37.238Z,2.15
2023-03-25T19:49:04.354Z,3.97
2023-03-25T19:51:32.049Z,2.17
2023-03-25T19:53:59.013Z,2.60
2023-03-25T19:56:26.317Z,2.97
2023-03-25T19:58:53.752Z,2.42
2023-03-25T20:01:22.710Z,2.20
2023-03-25T20:03:50.179Z,2.47
2023-03-25T20:06:17.153Z,2.30
2023-03-25T20:08:44.280Z,2.42
2023-03-25T20:11:12.391Z,2.55
2023-03-25T20:13:39.436Z,2.47
2023-03-25T20:16:07.120Z,2.10
2023-03-25T20:18:34.326Z,2.17
2023-03-25T20:21:01.303Z,2.45
2023-03-25T20:23:28.518Z,2.90
2023-03-25T20:25:55.683Z,2.50
2023-03-25T20:28:23.081Z,4.18
2023-03-25T20:30:50.252Z,2.40
2023-03-25T20:33:17.990Z,2.75
2023-03-25T20:35:45.959Z,2.80
2023-03-25T20:38:14.484Z,2.20
2023-03-25T20:40:45.065Z,2.35
2023-03-25T20:43:14.060Z,2.22
2023-03-25T20:45:41.915Z,1.77
2023-03-25T20:48:09.180Z,1.80
2023-03-25T20:50:36.298Z,2.40
2023-03-25T20:53:04.570Z,1.85
2023-03-25T20:55:32.124Z,2.40
2023-03-25T20:58:00.991Z,2.90
2023-03-25T21:00:28.050Z,2.15
2023-03-25T21:02:55.851Z,2.80
2023-03-25T21:05:23.265Z,1.80
2023-03-25T21:07:51.190Z,2.83
2023-03-25T21:10:20.334Z,2.83
2023-03-25T21:12:48.113Z,2.70
2023-03-25T21:15:15.446Z,2.30
2023-03-25T21:17:43.179Z,2.17
2023-03-25T21:20:11.480Z,1.85
2023-03-25T21:22:44.709Z,2.55
2023-03-25T21:25:14.394Z,1.90
2023-03-25T21:27:42.675Z,2.30
2023-03-25T21:30:10.455Z,2.65
2023-03-25T21:32:40.694Z,2.58
2023-03-25T21:35:09.306Z,2.00
2023-03-25T21:37:40.327Z,2.45
2023-03-25T21:40:11.190Z,2.83
2023-03-25T21:42:41.295Z,1.75
2023-03-25T21:45:11.029Z,1.73
2023-03-25T21:47:38.188Z,1.92
2023-03-25T21:50:10.153Z,1.50
2023-03-25T21:52:47.095Z,2.72
2023-03-25T21:55:16.325Z,2.53
2023-03-25T21:57:47.910Z,2.17
2023-03-25T22:00:17.733Z,2.67
2023-03-25T22:02:46.482Z,2.72
2023-03-25T22:05:16.217Z,1.77
2023-03-25T22:07:43.584Z,2.40
2023-03-25T22:10:11.539Z,2.70
2023-03-25T22:12:39.182Z,3.20
2023-03-25T22:15:07.228Z,2.60
2023-03-25T22:17:34.507Z,2.65
2023-03-25T22:20:01.648Z,2.78
2023-03-25T22:22:30.267Z,2.25
2023-03-25T22:24:57.537Z,3.13
2023-03-25T22:27:24.548Z,2.15
2023-03-25T22:29:51.658Z,2.25
2023-03-25T22:32:18.908Z,2.15
2023-03-25T22:34:45.872Z,2.03
2023-03-25T22:37:12.818Z,2.00
2023-03-25T22:39:39.954Z,2.28
2023-03-25T22:42:07.176Z,2.95
2023-03-25T22:44:34.118Z,2.88
2023-03-25T22:47:01.814Z,2.10
2023-03-25T22:49:29.254Z,1.88
2023-03-25T22:51:56.236Z,2.33
2023-03-25T22:54:23.833Z,2.10
2023-03-25T22:56:51.095Z,1.73
2023-03-25T22:59:18.139Z,2.75
2023-03-25T23:01:45.615Z,2.50
2023-03-25T23:04:12.852Z,2.50
2023-03-25T23:06:41.864Z,2.20
2023-03-25T23:09:10.674Z,2.10
2023-03-25T23:11:38.867Z,2.03
2023-03-25T23:14:08.925Z,2.22
2023-03-25T23:16:37.017Z,1.92
2023-03-25T23:19:06.341Z,2.13
2023-03-25T23:21:34.532Z,2.05
2023-03-25T23:24:04.144Z,2.45
2023-03-25T23:26:40.443Z,2.08
2023-03-25T23:29:10.342Z,1.90
2023-03-25T23:31:41.889Z,2.63
2023-03-25T23:34:11.224Z,2.15
2023-03-25T23:36:39.623Z,2.10
2023-03-25T23:39:08.846Z,1.92
2023-03-25T23:41:36.289Z,2.72
2023-03-25T23:44:04.716Z,2.55
2023-03-25T23:46:32.359Z,2.90
2023-03-25T23:49:02.930Z,2.40
2023-03-25T23:51:34.233Z,1.50
2023-03-25T23:54:02.507Z,1.98
2023-03-25T23:56:30.440Z,2.05
2023-03-25T23:58:59.125Z,1.88
